»·PEaware :: UAL1399 KSLC-KBOI

UAL1399 :: KSLC-KBOI

FLIGHT INFORMATION

Flight Status: Arrived
Operator:
United Airlines
More flights by this operator :: More flights under this callsign
Pilot: David C. (16084)
Aircraft: AIRBUS A320
(A320)
More flights by this aircraft type
Origin: KSLC Salt Lake City Intl
United States
Destination: KBOI Boise Air Terminal/Gowen
United States
More flights between these airports :: More routes between these airports
Route: +TWF4 TWF BROPH SPUUD3
File this flight plan on PilotEdge
Remarks:
Altitude:
(Current/Filed)
31,000ft
Speed:
(Current/Filed)
466kts
Departed: 06-Feb-18 04:38 PM
Arrived: 06-Feb-18 05:30 PM
Distance/Time
Traveled:
252nm/0:52
Distance/Time
To Go:
Arrived

Flight Plot

Page will automatically refresh every two minutes.

Flight plan parsing failed; only flown route is shown


Map Options




Map Legend


Flown Route
Filed Route
Departure Airport
Arrival Airport
Navaid (VOR, NDB)
Fix

Horizontal Profiles

Position Reports

Time Latitude Longitude Heading Altitude Ground
Speed
06-Feb-18 15:39 40.786745 -111.978273 313 4236ft 0kts
06-Feb-18 15:39 40.786745 -111.978273 313 4236ft 0kts
06-Feb-18 15:40 40.786745 -111.978273 313 4236ft 0kts
06-Feb-18 15:41 40.786745 -111.978273 313 4236ft 0kts
06-Feb-18 15:42 40.786745 -111.978273 313 4236ft 0kts
06-Feb-18 15:43 40.786745 -111.978273 313 4236ft 0kts
06-Feb-18 15:44 40.786745 -111.978273 313 4236ft 0kts
06-Feb-18 15:45 40.786745 -111.978273 313 4236ft 0kts
06-Feb-18 15:46 40.786745 -111.978273 313 4236ft 0kts
06-Feb-18 15:47 40.786745 -111.978273 313 4236ft 0kts
06-Feb-18 15:48 40.786745 -111.978273 313 4236ft 0kts
06-Feb-18 15:49 40.786745 -111.978273 313 4236ft 0kts
06-Feb-18 15:50 40.786745 -111.978273 313 4236ft 0kts
06-Feb-18 15:51 40.786745 -111.978273 313 4236ft 0kts
06-Feb-18 15:52 40.786745 -111.978273 313 4236ft 0kts
06-Feb-18 15:53 40.786745 -111.978273 313 4236ft 0kts
06-Feb-18 15:54 40.786745 -111.978273 313 4236ft 0kts
06-Feb-18 15:55 40.786745 -111.978273 313 4236ft 0kts
06-Feb-18 15:56 40.786745 -111.978273 313 4236ft 0kts
06-Feb-18 15:57 40.786745 -111.978273 313 4236ft 0kts
06-Feb-18 15:58 40.786745 -111.978273 313 4236ft 0kts
06-Feb-18 15:59 40.786745 -111.978273 313 4236ft 0kts
06-Feb-18 16:00 40.786745 -111.978273 313 4236ft 0kts
06-Feb-18 16:01 40.786745 -111.978273 313 4236ft 0kts
06-Feb-18 16:02 40.786745 -111.978273 313 4236ft 0kts
06-Feb-18 16:03 40.786745 -111.978273 313 4236ft 0kts
06-Feb-18 16:04 40.786745 -111.978273 313 4236ft 0kts
06-Feb-18 16:05 40.786745 -111.978273 313 4236ft 0kts
06-Feb-18 16:06 40.786745 -111.978273 313 4236ft 0kts
06-Feb-18 16:07 40.786745 -111.978273 313 4236ft 0kts
06-Feb-18 16:08 40.786745 -111.978273 313 4236ft 0kts
06-Feb-18 16:09 40.786745 -111.978273 313 4236ft 0kts
06-Feb-18 16:10 40.786745 -111.978273 313 4236ft 0kts
06-Feb-18 16:11 40.786745 -111.978273 313 4236ft 0kts
06-Feb-18 16:12 40.786745 -111.978273 313 4236ft 0kts
06-Feb-18 16:13 40.786745 -111.978273 313 4236ft 0kts
06-Feb-18 16:14 40.786745 -111.978273 313 4236ft 0kts
06-Feb-18 16:15 40.786745 -111.978273 313 4236ft 0kts
06-Feb-18 16:16 40.786745 -111.978273 313 4236ft 0kts
06-Feb-18 16:17 40.786745 -111.978273 313 4236ft 0kts
06-Feb-18 16:18 40.786745 -111.978273 313 4236ft 0kts
06-Feb-18 16:19 40.786745 -111.978273 313 4236ft 0kts
06-Feb-18 16:20 40.786745 -111.978272 313 4236ft 0kts
06-Feb-18 16:21 40.786745 -111.978273 313 4236ft 0kts
06-Feb-18 16:22 40.786745 -111.978273 313 4236ft 0kts
06-Feb-18 16:23 40.786559 -111.978010 313 4236ft 2kts
06-Feb-18 16:24 40.786138 -111.977833 11 4236ft 0kts
06-Feb-18 16:25 40.786138 -111.977833 10 4236ft 0kts
06-Feb-18 16:26 40.786138 -111.977833 10 4236ft 0kts
06-Feb-18 16:27 40.786138 -111.977833 10 4236ft 0kts
06-Feb-18 16:28 40.786138 -111.977833 10 4236ft 0kts
06-Feb-18 16:29 40.786138 -111.977833 10 4236ft 0kts
06-Feb-18 16:30 40.786138 -111.977833 10 4236ft 0kts
06-Feb-18 16:31 40.786138 -111.977833 10 4236ft 0kts
06-Feb-18 16:32 40.786138 -111.977833 10 4236ft 0kts
06-Feb-18 16:33 40.786172 -111.977822 15 4236ft 2kts
06-Feb-18 16:34 40.783760 -111.976337 175 4236ft 16kts
06-Feb-18 16:35 40.781155 -111.976029 175 4236ft 0kts
06-Feb-18 16:36 40.781115 -111.976025 175 4236ft 2kts
06-Feb-18 16:37 40.777138 -111.975087 175 4236ft 22kts
06-Feb-18 16:38 40.774811 -111.974725 155 4236ft 0kts
06-Feb-18 16:39 40.774811 -111.974725 155 4236ft 0kts
06-Feb-18 16:40 40.774811 -111.974725 155 4236ft 0kts
06-Feb-18 16:41 40.774811 -111.974725 155 4236ft 0kts
06-Feb-18 16:42 40.774810 -111.974724 155 4236ft 0kts
06-Feb-18 16:43 40.775607 -111.973242 355 4236ft 0kts
06-Feb-18 16:44 40.792825 -111.975244 355 4242ft 179kts
06-Feb-18 16:45 40.846348 -111.999076 297 7017ft 231kts
06-Feb-18 16:46 40.866390 -112.085548 287 10068ft 255kts
06-Feb-18 16:47 40.885208 -112.170360 288 13927ft 242kts
06-Feb-18 16:48 40.908643 -112.245915 322 16821ft 242kts
06-Feb-18 16:49 40.961382 -112.299722 323 19648ft 245kts
06-Feb-18 16:50 41.013371 -112.358070 320 22230ft 248kts
06-Feb-18 16:51 41.065551 -112.418389 320 24554ft 252kts
06-Feb-18 16:52 41.121633 -112.469430 327 26619ft 255kts
06-Feb-18 16:53 41.181307 -112.521650 324 28535ft 262kts
06-Feb-18 16:55 41.239892 -112.581189 325 30221ft 270kts
06-Feb-18 16:56 41.300966 -112.653228 316 30338ft 326kts
06-Feb-18 16:57 41.366049 -112.748307 315 30332ft 371kts
06-Feb-18 16:58 41.437960 -112.855640 314 30324ft 405kts
06-Feb-18 16:59 41.512917 -112.970529 314 30325ft 411kts
06-Feb-18 17:00 41.587780 -113.085475 314 30320ft 412kts
06-Feb-18 17:01 41.662712 -113.200900 314 30307ft 412kts
06-Feb-18 17:02 41.737551 -113.316604 314 30297ft 412kts
06-Feb-18 17:03 41.812318 -113.432617 314 30298ft 412kts
06-Feb-18 17:04 41.887000 -113.549045 314 30298ft 412kts
06-Feb-18 17:05 41.960985 -113.664939 314 30298ft 412kts
06-Feb-18 17:06 42.035317 -113.781628 313 30298ft 412kts
06-Feb-18 17:07 42.108970 -113.897734 313 30300ft 413kts
06-Feb-18 17:08 42.183262 -114.015326 314 30298ft 412kts
06-Feb-18 17:09 42.257199 -114.132823 314 30312ft 412kts
06-Feb-18 17:10 42.331298 -114.251044 314 30326ft 413kts
06-Feb-18 17:11 42.405300 -114.369592 314 30325ft 413kts
06-Feb-18 17:12 42.478988 -114.488105 314 30325ft 413kts
06-Feb-18 17:13 42.553173 -114.606350 314 30324ft 412kts
06-Feb-18 17:14 42.626760 -114.724033 313 30321ft 413kts
06-Feb-18 17:15 42.700776 -114.843003 313 29829ft 414kts
06-Feb-18 17:16 42.775458 -114.962265 314 28449ft 414kts
06-Feb-18 17:17 42.855534 -115.074962 315 25695ft 420kts
06-Feb-18 17:18 42.935654 -115.188886 314 22745ft 411kts
06-Feb-18 17:19 43.012396 -115.298701 315 20372ft 391kts
06-Feb-18 17:20 43.085277 -115.403358 314 18014ft 376kts
06-Feb-18 17:21 43.156104 -115.505512 314 15691ft 357kts
06-Feb-18 17:22 43.218617 -115.597379 314 15030ft 305kts
06-Feb-18 17:23 43.271607 -115.676003 307 14491ft 264kts
06-Feb-18 17:24 43.305520 -115.763134 299 13261ft 257kts
06-Feb-18 17:25 43.337967 -115.849966 298 11987ft 254kts
06-Feb-18 17:26 43.370061 -115.936155 298 10578ft 258kts
06-Feb-18 17:27 43.399766 -116.016364 299 9588ft 220kts
06-Feb-18 17:28 43.427551 -116.091376 299 8521ft 220kts
06-Feb-18 17:29 43.454314 -116.163940 299 7506ft 195kts
06-Feb-18 17:30 43.477490 -116.229177 297 7171ft 190kts
06-Feb-18 17:31 43.499754 -116.294590 297 6661ft 181kts
06-Feb-18 17:32 43.519377 -116.351969 300 6021ft 162kts
06-Feb-18 17:33 43.551645 -116.380294 355 5054ft 136kts
06-Feb-18 17:34 43.585786 -116.358518 49 4615ft 143kts
06-Feb-18 17:35 43.591377 -116.306771 109 3871ft 143kts
06-Feb-18 17:36 43.575031 -116.257213 115 3127ft 142kts
06-Feb-18 17:37 43.563285 -116.222680 116 2880ft 29kts
06-Feb-18 17:38 43.562240 -116.216533 351 2880ft 0kts
06-Feb-18 17:39 43.562240 -116.216533 351 2880ft 0kts
06-Feb-18 17:40 43.564973 -116.216885 350 2880ft 22kts
06-Feb-18 17:41 43.567587 -116.218708 205 2880ft 3kts
06-Feb-18 17:42 43.567578 -116.218714 205 2880ft 0kts
06-Feb-18 17:43 43.567578 -116.218714 205 2880ft 0kts
06-Feb-18 17:44 43.567578 -116.218714 205 2880ft 0kts

Navigation Log

Ident Type
Flight plan parsing failed, navigation log unavailable